CheckWX is a tool to help pilots better visualize weather data.  It is not intended as a substitute for an official pre-flight weather briefing.

03:12:47 UTC

KRWL TAF
Rawlins Municipal / Harvey Field Airport
Rawlins, Wyoming, USA
KRWL 172325Z 1800/1824 27015G25KT P6SM SCT100 FM180400 25005KT P6SM FEW100 FM181200 22005KT P6SM SKC FM181700 23020G30KT P6SM SKC

Sep-18@
00:00 UTC

Sep-18 @ 00:00 UTC

Sep-18@
04:00 UTC

Sep-18 @ 04:00 UTC

KRWL 172325Z 1800/1824 27015G25KT P6SM SCT100
Wind
  • 270° at 15 KTS
  • {Gusting to 25 KTS
Cloud Levels
  • Scattered at 10,000' AGL

Sep-18@
04:00 UTC

Sep-18 @ 04:00 UTC

Sep-18@
12:00 UTC

Sep-18 @ 12:00 UTC

FM180400 25005KT P6SM FEW100

From

From Standard forecast or significant change

Wind
  • 250° at 5 KTS
Cloud Levels
  • Few at 10,000' AGL

Sep-18@
12:00 UTC

Sep-18 @ 12:00 UTC

Sep-18@
17:00 UTC

Sep-18 @ 17:00 UTC

FM181200 22005KT P6SM SKC

From

From Standard forecast or significant change

Wind
  • 220° at 5 KTS
Cloud Levels
  • Clear skies

Sep-18@
17:00 UTC

Sep-18 @ 17:00 UTC

Sep-19@
00:00 UTC

Sep-19 @ 00:00 UTC

FM181700 23020G30KT P6SM SKC

From

From Standard forecast or significant change

Wind
  • 230° at 20 KTS
  • {Gusting to 30 KTS
Cloud Levels
  • Clear skies